createdAt,value
2019-03-04T00:00:39.845Z,99218.09
2019-03-04T00:01:42.857Z,99216.11
2019-03-04T00:02:44.073Z,99212.09
2019-03-04T00:03:45.203Z,99215.27
2019-03-04T00:04:46.316Z,99215.27
2019-03-04T00:05:47.438Z,99210.92
2019-03-04T00:06:48.576Z,99213.11
2019-03-04T00:07:49.691Z,99209.27
2019-03-04T00:08:50.824Z,99207.93
2019-03-04T00:09:52.265Z,99210.28
2019-03-04T00:10:53.376Z,99203.59
2019-03-04T00:11:54.600Z,99207.61
2019-03-04T00:12:55.712Z,99202.46
2019-03-04T00:13:56.860Z,99205.14
2019-03-04T00:14:57.977Z,99201.62
2019-03-04T00:15:59.088Z,99203.48
2019-03-04T00:17:00.204Z,99206.97
2019-03-04T00:18:01.416Z,99206.65
2019-03-04T00:19:02.638Z,99207.98
2019-03-04T00:20:06.259Z,99210.66
2019-03-04T00:21:07.364Z,99204.82
2019-03-04T00:22:08.660Z,99199.14
2019-03-04T00:23:09.717Z,99198.62
2019-03-04T00:24:11.049Z,99202.14
2019-03-04T00:25:12.265Z,99194.60
2019-03-04T00:26:13.381Z,99193.80
2019-03-04T00:27:14.600Z,99197.48
2019-03-04T00:28:15.816Z,99195.63
2019-03-04T00:29:16.945Z,99199.95
2019-03-04T00:30:18.056Z,99198.83
2019-03-04T00:31:19.170Z,99198.30
2019-03-04T00:32:20.288Z,99187.27
2019-03-04T00:33:21.508Z,99189.95
2019-03-04T00:34:22.733Z,99189.45
2019-03-04T00:35:24.346Z,99185.13
2019-03-04T00:36:25.461Z,99184.28
2019-03-04T00:37:26.586Z,99181.92
2019-03-04T00:38:27.720Z,99179.77
2019-03-04T00:39:28.854Z,99183.47
2019-03-04T00:40:29.977Z,99181.60
2019-03-04T00:41:31.192Z,99187.48
2019-03-04T00:42:32.310Z,99182.62
2019-03-04T00:43:33.427Z,99189.31
2019-03-04T00:44:34.556Z,99187.97
2019-03-04T00:45:35.678Z,99177.27
2019-03-04T00:46:36.795Z,99176.45
2019-03-04T00:47:37.899Z,99176.45
2019-03-04T00:48:39.068Z,99172.44
2019-03-04T00:49:40.201Z,99174.59
2019-03-04T00:50:41.312Z,99173.78
2019-03-04T00:51:42.428Z,99175.93
2019-03-04T00:52:43.536Z,99176.95
2019-03-04T00:53:44.656Z,99176.13
2019-03-04T00:54:45.983Z,99171.27
2019-03-04T00:55:47.093Z,99174.27
2019-03-04T00:56:48.204Z,99169.13
2019-03-04T00:57:49.325Z,99175.81
2019-03-04T00:58:50.442Z,99167.78
2019-03-04T00:59:51.572Z,99166.62
2019-03-04T01:00:52.863Z,99164.44
2019-03-04T01:01:54.076Z,99160.63
2019-03-04T01:02:55.188Z,99157.95
2019-03-04T01:03:56.306Z,99160.63
2019-03-04T01:04:57.437Z,99162.66
2019-03-04T01:05:58.559Z,99160.80
2019-03-04T01:06:59.701Z,99160.48
2019-03-04T01:08:00.822Z,99157.48
2019-03-04T01:09:02.435Z,99160.69
2019-03-04T01:10:06.961Z,99156.67
2019-03-04T01:11:08.072Z,99155.02
2019-03-04T01:12:09.184Z,99148.33
2019-03-04T01:13:10.298Z,99147.80
2019-03-04T01:14:11.413Z,99143.99
2019-03-04T01:15:22.274Z,99147.48
2019-03-04T01:16:22.969Z,99139.98
2019-03-04T01:17:24.084Z,99136.77
2019-03-04T01:18:25.204Z,99139.77
2019-03-04T01:19:26.343Z,99141.31
2019-03-04T01:20:27.471Z,99134.95
2019-03-04T01:21:28.582Z,99134.31
2019-03-04T01:22:29.706Z,99138.64
2019-03-04T01:23:30.823Z,99135.97
2019-03-04T01:24:31.942Z,99137.80
2019-03-04T01:25:33.200Z,99135.97
2019-03-04T01:26:34.313Z,99137.30
2019-03-04T01:27:35.440Z,99131.63
2019-03-04T01:28:36.559Z,99135.64
2019-03-04T01:29:37.671Z,99137.30
2019-03-04T01:30:38.996Z,99131.95
2019-03-04T01:31:40.280Z,99135.12
2019-03-04T01:32:41.781Z,99123.28
2019-03-04T01:33:42.898Z,99129.97
2019-03-04T01:34:44.017Z,99127.30
2019-03-04T01:35:45.275Z,99128.64
2019-03-04T01:36:46.389Z,99128.95
2019-03-04T01:37:47.701Z,99126.77
2019-03-04T01:38:48.817Z,99127.30
2019-03-04T01:39:49.936Z,99125.95
2019-03-04T01:40:51.170Z,99122.44
2019-03-04T01:41:52.282Z,99128.64
2019-03-04T01:42:53.398Z,99117.94
2019-03-04T01:43:54.510Z,99121.95
2019-03-04T01:44:55.624Z,99118.95
2019-03-04T01:45:56.857Z,99120.61
2019-03-04T01:46:58.081Z,99118.11
2019-03-04T01:47:59.197Z,99121.62
2019-03-04T01:49:00.368Z,99118.95
2019-03-04T01:50:01.595Z,99107.93
2019-03-04T01:51:02.823Z,99118.11
2019-03-04T01:52:03.940Z,99115.11
2019-03-04T01:53:05.176Z,99114.62
2019-03-04T01:54:06.294Z,99114.09
2019-03-04T01:55:09.715Z,99112.27
2019-03-04T01:56:10.862Z,99110.08
2019-03-04T01:57:12.080Z,99111.94
2019-03-04T01:58:13.198Z,99110.08
2019-03-04T01:59:14.311Z,99102.26
2019-03-04T02:00:18.230Z,99098.56
2019-03-04T02:01:19.405Z,99101.23
2019-03-04T02:02:20.784Z,99095.36
2019-03-04T02:03:21.901Z,99092.19
2019-03-04T02:04:23.119Z,99102.58
2019-03-04T02:05:24.237Z,99098.03
2019-03-04T02:06:25.479Z,99103.71
2019-03-04T02:07:26.608Z,99090.86
2019-03-04T02:08:27.716Z,99087.02
2019-03-04T02:09:28.829Z,99089.69
2019-03-04T02:10:29.948Z,99089.69
2019-03-04T02:11:31.084Z,99081.66
2019-03-04T02:12:32.200Z,99083.32
2019-03-04T02:13:33.318Z,99089.20
2019-03-04T02:14:34.432Z,99086.20
2019-03-04T02:15:35.562Z,99084.55
2019-03-04T02:16:36.794Z,99086.70
2019-03-04T02:17:37.905Z,99084.55
2019-03-04T02:18:39.026Z,99077.86
2019-03-04T02:19:40.137Z,99072.50
2019-03-04T02:20:41.352Z,99076.52
2019-03-04T02:21:42.577Z,99074.66
2019-03-04T02:22:44.288Z,99073.32
2019-03-04T02:23:45.401Z,99067.97
2019-03-04T02:24:46.514Z,99073.00
2019-03-04T02:25:51.233Z,99067.16
2019-03-04T02:26:53.355Z,99068.49
2019-03-04T02:27:54.572Z,99063.14
2019-03-04T02:28:55.687Z,99065.81
2019-03-04T02:29:56.910Z,99068.49
2019-03-04T02:30:58.022Z,99065.81
2019-03-04T02:31:59.146Z,99056.77
2019-03-04T02:33:00.258Z,99062.13
2019-03-04T02:34:01.376Z,99057.79
2019-03-04T02:35:03.788Z,99059.12
2019-03-04T02:36:05.407Z,99055.93
2019-03-04T02:37:06.528Z,99056.45
2019-03-04T02:38:07.749Z,99052.76
2019-03-04T02:39:08.962Z,99051.10
2019-03-04T02:40:10.188Z,99053.25
2019-03-04T02:41:11.398Z,99051.91
2019-03-04T02:42:12.565Z,99055.11
2019-03-04T02:43:13.682Z,99052.44
2019-03-04T02:44:14.785Z,99046.56
2019-03-04T02:45:18.951Z,99048.74
2019-03-04T02:46:20.173Z,99049.77
2019-03-04T02:47:21.324Z,99041.73
2019-03-04T02:48:22.451Z,99045.05
2019-03-04T02:49:23.610Z,99037.20
2019-03-04T02:50:24.725Z,99043.39
2019-03-04T02:51:25.849Z,99046.39
2019-03-04T02:52:26.970Z,99048.54
2019-03-04T02:53:28.155Z,99044.03
2019-03-04T02:54:29.312Z,99048.54
2019-03-04T02:55:30.528Z,99044.52
2019-03-04T02:56:31.650Z,99045.86
2019-03-04T02:57:32.813Z,99044.20
2019-03-04T02:58:34.002Z,99038.36
2019-03-04T02:59:35.113Z,99036.50
2019-03-04T03:00:36.341Z,99039.17
2019-03-04T03:01:37.557Z,99034.34
2019-03-04T03:02:39.240Z,99033.33
2019-03-04T03:03:40.349Z,99027.66
2019-03-04T03:04:41.464Z,99030.33
2019-03-04T03:05:42.979Z,99031.98
2019-03-04T03:06:44.107Z,99026.32
2019-03-04T03:07:45.248Z,99022.30
2019-03-04T03:08:46.362Z,99026.32
2019-03-04T03:09:47.482Z,99025.80
2019-03-04T03:10:48.763Z,99022.80
2019-03-04T03:11:49.874Z,99023.96
2019-03-04T03:12:51.182Z,99016.95
2019-03-04T03:13:52.301Z,99015.62
2019-03-04T03:14:53.534Z,99015.62
2019-03-04T03:15:54.855Z,99013.44
2019-03-04T03:16:56.089Z,99009.73
2019-03-04T03:17:57.207Z,99005.41
2019-03-04T03:18:58.328Z,99010.27
2019-03-04T03:19:59.446Z,99006.25
2019-03-04T03:21:00.562Z,99007.27
2019-03-04T03:22:01.685Z,98997.38
2019-03-04T03:23:02.931Z,98992.56
2019-03-04T03:24:04.042Z,98993.89
2019-03-04T03:25:07.456Z,98986.36
2019-03-04T03:26:08.573Z,98992.56
2019-03-04T03:27:09.694Z,98987.20
2019-03-04T03:28:10.951Z,98989.88
2019-03-04T03:29:12.072Z,98976.68
2019-03-04T03:30:17.852Z,98976.19
2019-03-04T03:31:18.970Z,98979.17
2019-03-04T03:32:20.068Z,98972.17
2019-03-04T03:33:21.200Z,98972.48
2019-03-04T03:34:22.325Z,98968.48
2019-03-04T03:35:23.597Z,98968.97
2019-03-04T03:36:24.727Z,98968.48
2019-03-04T03:37:25.853Z,98967.14
2019-03-04T03:38:26.970Z,98969.28
2019-03-04T03:39:28.084Z,98965.80
2019-03-04T03:40:29.201Z,98967.14
2019-03-04T03:41:30.316Z,98969.81
2019-03-04T03:42:31.433Z,98964.46
2019-03-04T03:43:32.564Z,98964.14
2019-03-04T03:44:33.686Z,98958.80
2019-03-04T03:45:34.900Z,98960.45
2019-03-04T03:46:36.018Z,98953.44
2019-03-04T03:47:37.129Z,98949.92
2019-03-04T03:48:38.439Z,98952.11
2019-03-04T03:49:39.654Z,98947.77
2019-03-04T03:50:40.788Z,98954.96
2019-03-04T03:51:41.911Z,98952.28
2019-03-04T03:52:43.524Z,98961.16
2019-03-04T03:53:44.839Z,98952.28
2019-03-04T03:54:45.945Z,98949.43
2019-03-04T03:55:47.056Z,98951.79
2019-03-04T03:56:48.252Z,98948.59
2019-03-04T03:57:49.359Z,98944.58
2019-03-04T03:58:50.513Z,98937.07
2019-03-04T03:59:51.626Z,98932.53
2019-03-04T04:00:52.742Z,98937.07
2019-03-04T04:01:53.851Z,98935.73
2019-03-04T04:02:54.963Z,98932.04
2019-03-04T04:03:56.080Z,98933.87
2019-03-04T04:04:57.194Z,98931.20
2019-03-04T04:05:58.805Z,98927.39
2019-03-04T04:06:59.937Z,98928.52
2019-03-04T04:08:01.155Z,98927.71
2019-03-04T04:09:04.191Z,98924.19
2019-03-04T04:10:08.496Z,98927.71
2019-03-04T04:11:09.713Z,98928.73
2019-03-04T04:12:11.063Z,98924.72
2019-03-04T04:13:12.178Z,98923.38
2019-03-04T04:14:13.819Z,98931.72
2019-03-04T04:15:16.140Z,98927.08
2019-03-04T04:16:17.258Z,98920.88
2019-03-04T04:17:18.369Z,98926.55
2019-03-04T04:18:19.485Z,98921.72
2019-03-04T04:19:20.623Z,98923.23
2019-03-04T04:20:21.741Z,98925.42
2019-03-04T04:21:22.859Z,98927.78
2019-03-04T04:22:24.071Z,98923.23
2019-03-04T04:23:25.182Z,98924.58
2019-03-04T04:24:26.338Z,98925.11
2019-03-04T04:25:27.564Z,98922.92
2019-03-04T04:26:28.674Z,98925.11
2019-03-04T04:27:29.789Z,98921.59
2019-03-04T04:28:31.318Z,98922.43
2019-03-04T04:29:34.381Z,98920.25
2019-03-04T04:30:36.594Z,98916.77
2019-03-04T04:31:37.807Z,98921.59
2019-03-04T04:32:39.117Z,98919.76
2019-03-04T04:33:40.240Z,98922.11
2019-03-04T04:34:41.648Z,98922.11
2019-03-04T04:35:42.962Z,98918.10
2019-03-04T04:36:44.075Z,98912.44
2019-03-04T04:37:45.200Z,98916.23
2019-03-04T04:38:46.424Z,98916.23
2019-03-04T04:39:47.556Z,98915.74
2019-03-04T04:40:48.676Z,98919.76
2019-03-04T04:41:49.796Z,98921.91
2019-03-04T04:42:51.016Z,98917.40
2019-03-04T04:43:52.137Z,98912.54
2019-03-04T04:44:53.260Z,98912.23
2019-03-04T04:45:54.372Z,98916.23
2019-03-04T04:46:55.591Z,98921.91
2019-03-04T04:47:56.711Z,98913.06
2019-03-04T04:48:57.833Z,98910.71
2019-03-04T04:49:59.151Z,98910.39
2019-03-04T04:51:00.276Z,98912.05
2019-03-04T04:52:01.492Z,98910.71
2019-03-04T04:53:02.605Z,98910.71
2019-03-04T04:54:03.719Z,98906.38
2019-03-04T04:55:05.040Z,98915.74
2019-03-04T04:56:06.260Z,98906.38
2019-03-04T04:57:07.367Z,98907.72
2019-03-04T04:58:08.585Z,98913.38
2019-03-04T04:59:09.705Z,98911.02
2019-03-04T05:00:20.056Z,98906.70
2019-03-04T05:01:21.272Z,98908.53
2019-03-04T05:02:22.386Z,98903.70
2019-03-04T05:03:23.505Z,98906.06
2019-03-04T05:04:24.658Z,98906.56
2019-03-04T05:05:25.745Z,98902.72
2019-03-04T05:06:26.968Z,98913.42
2019-03-04T05:07:28.098Z,98904.06
2019-03-04T05:08:29.208Z,98910.43
2019-03-04T05:09:30.340Z,98912.30
2019-03-04T05:10:31.571Z,98909.77
2019-03-04T05:11:32.789Z,98910.30
2019-03-04T05:12:33.907Z,98906.77
2019-03-04T05:13:35.022Z,98902.45
2019-03-04T05:14:36.238Z,98905.44
2019-03-04T05:15:37.366Z,98905.13
2019-03-04T05:16:38.480Z,98903.47
2019-03-04T05:17:39.966Z,98902.13
2019-03-04T05:18:41.221Z,98901.32
2019-03-04T05:19:42.347Z,98906.14
2019-03-04T05:20:43.497Z,98902.66
2019-03-04T05:21:44.612Z,98903.99
2019-03-04T05:22:45.729Z,98900.48
2019-03-04T05:23:46.855Z,98905.83
2019-03-04T05:24:48.068Z,98909.03
2019-03-04T05:25:49.197Z,98903.16
2019-03-04T05:26:50.416Z,98901.50
2019-03-04T05:27:51.535Z,98904.48
2019-03-04T05:28:52.650Z,98898.33
2019-03-04T05:29:53.768Z,98897.48
2019-03-04T05:30:55.005Z,98902.66
2019-03-04T05:31:56.124Z,98903.16
2019-03-04T05:32:57.241Z,98901.00
2019-03-04T05:33:58.676Z,98907.16
2019-03-04T05:34:59.799Z,98904.48
2019-03-04T05:36:00.928Z,98900.80
2019-03-04T05:37:02.042Z,98902.66
2019-03-04T05:38:03.155Z,98893.30
2019-03-04T05:39:05.611Z,98894.11
2019-03-04T05:40:09.920Z,98892.45
2019-03-04T05:41:11.184Z,98897.09
2019-03-04T05:42:12.308Z,98891.75
2019-03-04T05:43:13.425Z,98887.73
2019-03-04T05:44:14.651Z,98893.92
2019-03-04T05:45:17.062Z,98885.91
2019-03-04T05:46:18.408Z,98887.23
2019-03-04T05:47:19.525Z,98884.04
2019-03-04T05:48:20.647Z,98880.03
2019-03-04T05:49:21.760Z,98878.38
2019-03-04T05:50:24.778Z,98885.06
2019-03-04T05:51:25.926Z,98880.73
2019-03-04T05:52:27.037Z,98878.90
2019-03-04T05:53:28.253Z,98877.03
2019-03-04T05:54:29.474Z,98877.25
2019-03-04T05:55:30.589Z,98874.05
2019-03-04T05:56:31.884Z,98875.06
2019-03-04T05:57:33.005Z,98880.73
2019-03-04T05:58:34.113Z,98867.88
2019-03-04T05:59:35.234Z,98868.38
2019-03-04T06:00:38.257Z,98869.53
2019-03-04T06:01:39.411Z,98869.02
2019-03-04T06:02:40.520Z,98869.02
2019-03-04T06:03:41.931Z,98870.34
2019-03-04T06:04:43.045Z,98862.84
2019-03-04T06:05:44.161Z,98862.33
2019-03-04T06:06:56.202Z,98867.17
2019-03-04T06:07:59.235Z,98863.17
2019-03-04T06:09:00.344Z,98862.64
2019-03-04T06:10:01.708Z,98862.95
2019-03-04T06:11:02.920Z,98864.95
2019-03-04T06:12:04.045Z,98860.45
2019-03-04T06:13:05.162Z,98859.56
2019-03-04T06:14:07.675Z,98863.19
2019-03-04T06:15:12.088Z,98862.27
2019-03-04T06:16:13.205Z,98857.99
2019-03-04T06:17:14.365Z,98861.93
2019-03-04T06:18:15.486Z,98861.84
2019-03-04T06:19:16.596Z,98852.72
2019-03-04T06:20:18.617Z,98859.15
2019-03-04T06:21:19.829Z,98854.52
2019-03-04T06:22:20.953Z,98851.89
2019-03-04T06:23:22.201Z,98854.09
2019-03-04T06:24:23.316Z,98850.30
2019-03-04T06:25:26.239Z,98852.50
2019-03-04T06:26:27.353Z,98847.18
2019-03-04T06:27:28.509Z,98848.25
2019-03-04T06:28:29.622Z,98842.89
2019-03-04T06:29:30.839Z,98851.84
2019-03-04T06:30:31.949Z,98849.70
2019-03-04T06:31:33.067Z,98845.99
2019-03-04T06:32:34.192Z,98846.55
2019-03-04T06:33:35.310Z,98843.06
2019-03-04T06:34:36.424Z,98845.73
2019-03-04T06:35:37.533Z,98842.77
2019-03-04T06:36:38.648Z,98838.47
2019-03-04T06:37:39.824Z,98839.48
2019-03-04T06:38:41.049Z,98845.90
2019-03-04T06:39:42.268Z,98842.89
2019-03-04T06:40:43.387Z,98839.61
2019-03-04T06:41:44.606Z,98843.84
2019-03-04T06:42:45.726Z,98841.06
2019-03-04T06:43:46.944Z,98838.59
2019-03-04T06:44:48.162Z,98844.19
2019-03-04T06:45:49.274Z,98843.27
2019-03-04T06:46:50.394Z,98844.01
2019-03-04T06:47:51.628Z,98842.56
2019-03-04T06:48:52.754Z,98847.82
2019-03-04T06:49:53.856Z,98846.38
2019-03-04T06:50:55.073Z,98846.27
2019-03-04T06:51:56.200Z,98845.03
2019-03-04T06:52:58.812Z,98848.11
2019-03-04T06:54:12.465Z,98853.06
2019-03-04T06:55:17.128Z,98849.97
2019-03-04T06:56:34.039Z,98841.72
2019-03-04T06:57:35.152Z,98842.33
2019-03-04T06:58:45.844Z,98841.11
2019-03-04T07:00:02.521Z,98840.07
2019-03-04T07:01:07.139Z,98842.84
2019-03-04T07:02:29.760Z,98842.64
2019-03-04T07:03:30.875Z,98841.61
2019-03-04T07:04:44.319Z,98846.45
2019-03-04T07:05:47.135Z,98841.92
2019-03-04T07:06:48.249Z,98844.59
2019-03-04T07:07:49.501Z,98840.34
2019-03-04T07:08:54.320Z,98839.84
2019-03-04T07:09:55.447Z,98839.84
2019-03-04T07:10:56.560Z,98842.30
2019-03-04T07:11:57.957Z,98840.46
2019-03-04T07:12:59.068Z,98838.08
2019-03-04T07:14:00.177Z,98838.39
2019-03-04T07:15:01.307Z,98838.70
2019-03-04T07:16:02.514Z,98845.41
2019-03-04T07:17:03.733Z,98839.00
2019-03-04T07:18:04.841Z,98835.28
2019-03-04T07:19:05.947Z,98838.28
2019-03-04T07:20:18.889Z,98837.23
2019-03-04T07:21:19.968Z,98833.71
2019-03-04T07:22:21.082Z,98832.38
2019-03-04T07:23:22.197Z,98836.40
2019-03-04T07:24:23.353Z,98829.19
2019-03-04T07:25:24.564Z,98833.21
2019-03-04T07:26:25.672Z,98832.98
2019-03-04T07:27:26.796Z,98832.98
2019-03-04T07:28:27.996Z,98830.11
2019-03-04T07:29:29.141Z,98833.30
2019-03-04T07:30:30.364Z,98826.08
2019-03-04T07:31:31.480Z,98827.42
2019-03-04T07:32:32.596Z,98825.23
2019-03-04T07:33:33.733Z,98826.08
2019-03-04T07:34:34.910Z,98822.36
2019-03-04T07:35:36.023Z,98821.02
2019-03-04T07:36:37.233Z,98823.39
2019-03-04T07:37:38.355Z,98821.02
2019-03-04T07:38:45.806Z,98818.33
2019-03-04T07:39:46.960Z,98819.98
2019-03-04T07:40:48.173Z,98813.48
2019-03-04T07:41:49.286Z,98812.45
2019-03-04T07:42:50.405Z,98813.80
2019-03-04T07:43:51.520Z,98812.66
2019-03-04T07:44:52.845Z,98812.66
2019-03-04T07:45:53.963Z,98812.15
2019-03-04T07:46:55.077Z,98812.95
2019-03-04T07:47:56.292Z,98816.48
2019-03-04T07:48:57.409Z,98815.95
2019-03-04T07:49:58.538Z,98810.80
2019-03-04T07:51:11.411Z,98812.95
2019-03-04T07:52:12.637Z,98807.59
2019-03-04T07:53:13.753Z,98806.25
2019-03-04T07:54:14.867Z,98813.99
2019-03-04T07:55:16.045Z,98809.66
2019-03-04T07:56:17.153Z,98809.12
2019-03-04T07:57:18.378Z,98813.99
2019-03-04T07:58:19.494Z,98802.11
2019-03-04T07:59:20.616Z,98809.66
2019-03-04T08:00:21.934Z,98809.66
2019-03-04T08:01:23.045Z,98808.31
2019-03-04T08:02:24.178Z,98805.63
2019-03-04T08:03:25.394Z,98804.29
2019-03-04T08:04:26.619Z,98806.13
2019-03-04T08:05:29.549Z,98805.33
2019-03-04T08:06:30.657Z,98806.67
2019-03-04T08:07:37.882Z,98809.86
2019-03-04T08:08:41.509Z,98806.67
2019-03-04T08:10:09.413Z,98809.86
2019-03-04T08:11:16.845Z,98813.58
2019-03-04T08:12:33.208Z,98814.61
2019-03-04T08:13:43.885Z,98812.96
2019-03-04T08:14:46.295Z,98814.53
2019-03-04T08:15:47.410Z,98818.75
2019-03-04T08:16:48.670Z,98806.37
2019-03-04T08:17:49.798Z,98812.58
2019-03-04T08:18:50.916Z,98812.27
2019-03-04T08:19:52.029Z,98806.37
2019-03-04T08:20:53.150Z,98809.05
2019-03-04T08:21:54.481Z,98804.22
2019-03-04T08:22:55.700Z,98801.53
2019-03-04T08:23:56.822Z,98799.34
2019-03-04T08:24:57.928Z,98796.36
2019-03-04T08:25:59.036Z,98802.34
2019-03-04T08:27:00.169Z,98794.81
2019-03-04T08:28:01.484Z,98793.48
2019-03-04T08:29:02.792Z,98790.98
2019-03-04T08:30:07.509Z,98791.83
2019-03-04T08:31:08.731Z,98785.12
2019-03-04T08:32:09.849Z,98785.12
2019-03-04T08:33:10.961Z,98787.80
2019-03-04T08:34:12.077Z,98786.16
2019-03-04T08:35:13.192Z,98782.63
2019-03-04T08:36:14.320Z,98787.50
2019-03-04T08:37:15.618Z,98784.50
2019-03-04T08:38:16.731Z,98785.84
2019-03-04T08:39:17.861Z,98778.09
2019-03-04T08:40:18.963Z,98783.77
2019-03-04T08:41:20.080Z,98784.27
2019-03-04T08:42:21.244Z,98788.00
2019-03-04T08:43:22.361Z,98781.82
2019-03-04T08:44:23.505Z,98782.63
2019-03-04T08:45:24.794Z,98783.47
2019-03-04T08:46:26.015Z,98784.81
2019-03-04T08:47:27.289Z,98783.77
2019-03-04T08:48:28.406Z,98782.43
2019-03-04T08:49:29.522Z,98783.77
2019-03-04T08:50:30.736Z,98779.75
2019-03-04T08:51:31.856Z,98784.08
2019-03-04T08:52:32.996Z,98781.28
2019-03-04T08:53:34.110Z,98780.78
2019-03-04T08:54:35.276Z,98782.93
2019-03-04T08:55:36.392Z,98777.56
2019-03-04T08:56:37.511Z,98778.91
2019-03-04T08:57:38.939Z,98775.41
2019-03-04T08:58:40.055Z,98779.44
2019-03-04T08:59:41.168Z,98778.59
2019-03-04T09:00:42.389Z,98780.78
2019-03-04T09:01:43.614Z,98778.09
2019-03-04T09:02:44.860Z,98765.70
2019-03-04T09:03:45.973Z,98774.07
2019-03-04T09:04:47.092Z,98775.41
2019-03-04T09:05:48.210Z,98768.70
2019-03-04T09:06:49.322Z,98772.73
2019-03-04T09:07:50.445Z,98775.41
2019-03-04T09:08:51.869Z,98775.11
2019-03-04T09:09:53.113Z,98769.20
2019-03-04T09:10:54.332Z,98772.20
2019-03-04T09:11:55.437Z,98766.52
2019-03-04T09:12:56.559Z,98767.36
2019-03-04T09:13:57.673Z,98767.36
2019-03-04T09:14:58.792Z,98760.64
2019-03-04T09:15:59.906Z,98769.73
2019-03-04T09:17:01.018Z,98759.00
2019-03-04T09:18:02.140Z,98765.70
2019-03-04T09:19:03.352Z,98765.17
2019-03-04T09:20:08.076Z,98761.15
2019-03-04T09:21:09.304Z,98767.05
2019-03-04T09:22:10.425Z,98765.17
2019-03-04T09:23:11.548Z,98763.53
2019-03-04T09:24:12.760Z,98763.53
2019-03-04T09:25:32.239Z,98767.05
2019-03-04T09:26:33.357Z,98766.75
2019-03-04T09:27:34.577Z,98763.53
2019-03-04T09:28:35.705Z,98762.19
2019-03-04T09:29:36.827Z,98745.77
2019-03-04T09:30:38.049Z,98756.01
2019-03-04T09:31:39.162Z,98750.64
2019-03-04T09:32:40.272Z,98750.11
2019-03-04T09:33:41.539Z,98743.92
2019-03-04T09:34:42.653Z,98746.61
2019-03-04T09:35:43.772Z,98739.06
2019-03-04T09:36:44.883Z,98741.24
2019-03-04T09:37:45.995Z,98739.90
2019-03-04T09:38:47.131Z,98740.71
2019-03-04T09:39:48.247Z,98735.87
2019-03-04T09:40:49.356Z,98734.53
2019-03-04T09:41:52.636Z,98741.55
2019-03-04T09:42:53.793Z,98738.56
2019-03-04T09:43:54.916Z,98737.22
2019-03-04T09:44:56.036Z,98734.53
2019-03-04T09:45:57.157Z,98737.22
2019-03-04T09:46:58.264Z,98732.88
2019-03-04T09:47:59.383Z,98737.41
2019-03-04T09:49:00.615Z,98733.92
2019-03-04T09:50:02.624Z,98728.25
2019-03-04T09:51:03.740Z,98730.40
2019-03-04T09:52:05.101Z,98731.13
2019-03-04T09:53:06.219Z,98732.16
2019-03-04T09:54:07.357Z,98722.66
2019-03-04T09:55:10.274Z,98722.36
2019-03-04T09:56:11.444Z,98722.28
2019-03-04T09:57:12.542Z,98722.78
2019-03-04T09:58:13.653Z,98724.05
2019-03-04T09:59:14.890Z,98724.23
2019-03-04T10:00:40.016Z,98726.62
2019-03-04T10:01:44.740Z,98720.94
2019-03-04T10:02:45.960Z,98721.98
2019-03-04T10:03:56.229Z,98724.05
2019-03-04T10:05:07.027Z,98726.42
2019-03-04T10:06:17.789Z,98722.09
2019-03-04T10:07:37.815Z,98722.82
2019-03-04T10:08:54.851Z,98716.84
2019-03-04T10:10:17.638Z,98714.89
2019-03-04T10:11:22.352Z,98709.33
2019-03-04T10:12:51.213Z,98712.44
2019-03-04T10:13:58.942Z,98709.34
2019-03-04T10:15:20.712Z,98714.51
2019-03-04T10:16:28.478Z,98707.88
2019-03-04T10:17:44.998Z,98709.34
2019-03-04T10:19:10.875Z,98707.08
2019-03-04T10:20:36.531Z,98706.66
2019-03-04T10:21:58.909Z,98708.41
2019-03-04T10:23:25.003Z,98705.03
2019-03-04T10:24:53.994Z,98706.80
2019-03-04T10:26:22.308Z,98707.71
2019-03-04T10:27:26.116Z,98700.81
2019-03-04T10:28:33.557Z,98702.56
2019-03-04T10:29:41.001Z,98703.29
2019-03-04T10:30:57.796Z,98705.66
2019-03-04T10:32:28.224Z,98698.84
2019-03-04T10:33:35.617Z,98694.73
2019-03-04T10:34:58.507Z,98697.11
2019-03-04T10:36:27.208Z,98689.57
2019-03-04T10:37:32.040Z,98690.30
2019-03-04T10:38:51.870Z,98687.80
2019-03-04T10:40:02.401Z,98688.34
2019-03-04T10:41:13.009Z,98683.89
2019-03-04T10:42:51.573Z,98686.57
2019-03-04T10:44:08.373Z,98681.94
2019-03-04T10:45:28.119Z,98682.16
2019-03-04T10:46:39.065Z,98681.01
2019-03-04T10:47:40.188Z,98684.41
2019-03-04T10:48:41.312Z,98679.36
2019-03-04T10:49:42.858Z,98676.38
2019-03-04T10:50:43.965Z,98681.73
2019-03-04T10:51:45.078Z,98679.36
2019-03-04T10:52:46.207Z,98681.01
2019-03-04T10:53:47.453Z,98674.00
2019-03-04T10:54:48.568Z,98672.47
2019-03-04T10:55:49.680Z,98673.59
2019-03-04T10:56:50.904Z,98676.27
2019-03-04T10:57:52.128Z,98678.22
2019-03-04T10:58:53.276Z,98671.52
2019-03-04T10:59:54.388Z,98667.00
2019-03-04T11:00:56.597Z,98669.69
2019-03-04T11:01:57.716Z,98667.81
2019-03-04T11:02:58.935Z,98667.31
2019-03-04T11:04:00.222Z,98667.31
2019-03-04T11:05:01.343Z,98661.42
2019-03-04T11:06:02.447Z,98659.89
2019-03-04T11:07:03.555Z,98660.69
2019-03-04T11:08:04.678Z,98662.26
2019-03-04T11:09:07.440Z,98660.69
2019-03-04T11:10:11.671Z,98665.55
2019-03-04T11:11:12.786Z,98659.35
2019-03-04T11:12:14.216Z,98656.17
2019-03-04T11:13:15.525Z,98660.19
2019-03-04T11:14:16.764Z,98661.00
2019-03-04T11:15:25.251Z,98655.14
2019-03-04T11:16:26.472Z,98661.31
2019-03-04T11:17:27.596Z,98664.30
2019-03-04T11:18:28.710Z,98655.95
2019-03-04T11:19:29.837Z,98661.62
2019-03-04T11:20:31.296Z,98653.27
2019-03-04T11:21:32.508Z,98650.28
2019-03-04T11:22:33.736Z,98652.15
2019-03-04T11:23:34.849Z,98653.69
2019-03-04T11:24:36.117Z,98652.34
2019-03-04T11:25:37.221Z,98653.07
2019-03-04T11:26:38.643Z,98651.73
2019-03-04T11:27:39.857Z,98649.05
2019-03-04T11:28:40.969Z,98644.41
2019-03-04T11:29:42.149Z,98655.13
2019-03-04T11:30:43.398Z,98645.75
2019-03-04T11:31:44.501Z,98649.77
2019-03-04T11:32:45.614Z,98648.12
2019-03-04T11:33:46.724Z,98651.64
2019-03-04T11:34:47.863Z,98646.59
2019-03-04T11:35:48.981Z,98644.41
2019-03-04T11:36:50.094Z,98643.07
2019-03-04T11:37:51.210Z,98641.01
2019-03-04T11:38:56.035Z,98643.69
2019-03-04T11:39:59.077Z,98641.63
2019-03-04T11:41:00.284Z,98640.59
2019-03-04T11:42:01.402Z,98640.90
2019-03-04T11:43:03.116Z,98634.20
2019-03-04T11:44:04.242Z,98641.85
2019-03-04T11:45:09.169Z,98638.02
2019-03-04T11:46:10.274Z,98632.97
2019-03-04T11:47:11.389Z,98632.13
2019-03-04T11:48:12.496Z,98632.47
2019-03-04T11:49:13.612Z,98627.80
2019-03-04T11:50:15.920Z,98631.33
2019-03-04T11:51:17.038Z,98633.47
2019-03-04T11:52:18.152Z,98629.45
2019-03-04T11:53:19.280Z,98626.46
2019-03-04T11:54:20.396Z,98625.12
2019-03-04T11:55:27.928Z,98626.46
2019-03-04T11:56:29.151Z,98619.98
2019-03-04T11:57:30.388Z,98622.14
2019-03-04T11:58:31.585Z,98623.47
2019-03-04T11:59:32.805Z,98624.31
2019-03-04T12:00:41.696Z,98620.48
2019-03-04T12:01:44.710Z,98618.12
2019-03-04T12:02:45.828Z,98619.15
2019-03-04T12:03:47.049Z,98618.34
2019-03-04T12:04:48.273Z,98609.99
2019-03-04T12:05:49.425Z,98616.47
2019-03-04T12:06:50.640Z,98617.50
2019-03-04T12:07:51.752Z,98615.35
2019-03-04T12:08:52.974Z,98615.66
2019-03-04T12:09:54.096Z,98613.17
2019-03-04T12:10:55.257Z,98610.49
2019-03-04T12:11:56.369Z,98612.36
2019-03-04T12:12:57.512Z,98609.16
2019-03-04T12:13:58.645Z,98617.50